sensor_id;sensor_type;location;lat;lon;timestamp;P1;durP1;ratioP1;P2;durP2;ratioP2
72797;SDS011;61084;55.816;37.036;2023-06-24T00:04:35;12.48;;;7.20;;
72797;SDS011;61084;55.816;37.036;2023-06-24T00:07:01;10.57;;;7.57;;
72797;SDS011;61084;55.816;37.036;2023-06-24T00:09:28;11.20;;;7.25;;
72797;SDS011;61084;55.816;37.036;2023-06-24T00:11:56;11.00;;;8.38;;
72797;SDS011;61084;55.816;37.036;2023-06-24T00:14:25;10.73;;;7.45;;
72797;SDS011;61084;55.816;37.036;2023-06-24T00:16:52;11.23;;;8.10;;
72797;SDS011;61084;55.816;37.036;2023-06-24T00:19:20;11.57;;;7.78;;
72797;SDS011;61084;55.816;37.036;2023-06-24T00:21:47;10.52;;;7.82;;
72797;SDS011;61084;55.816;37.036;2023-06-24T00:24:13;9.85;;;7.57;;
72797;SDS011;61084;55.816;37.036;2023-06-24T00:26:39;11.43;;;7.85;;
72797;SDS011;61084;55.816;37.036;2023-06-24T00:29:05;13.85;;;8.35;;
72797;SDS011;61084;55.816;37.036;2023-06-24T00:31:31;10.05;;;7.07;;
72797;SDS011;61084;55.816;37.036;2023-06-24T00:33:57;8.75;;;7.15;;
72797;SDS011;61084;55.816;37.036;2023-06-24T00:36:23;8.80;;;7.40;;
72797;SDS011;61084;55.816;37.036;2023-06-24T00:38:49;10.27;;;8.30;;
72797;SDS011;61084;55.816;37.036;2023-06-24T00:43:42;9.73;;;7.38;;
72797;SDS011;61084;55.816;37.036;2023-06-24T00:46:26;8.95;;;7.07;;
72797;SDS011;61084;55.816;37.036;2023-06-24T00:48:56;10.73;;;7.78;;
72797;SDS011;61084;55.816;37.036;2023-06-24T00:51:24;10.75;;;6.82;;
72797;SDS011;61084;55.816;37.036;2023-06-24T00:53:53;12.25;;;7.50;;
72797;SDS011;61084;55.816;37.036;2023-06-24T00:56:19;11.90;;;7.35;;
72797;SDS011;61084;55.816;37.036;2023-06-24T00:58:47;9.68;;;6.72;;
72797;SDS011;61084;55.816;37.036;2023-06-24T01:01:15;10.60;;;6.88;;
72797;SDS011;61084;55.816;37.036;2023-06-24T01:06:09;11.05;;;6.65;;
72797;SDS011;61084;55.816;37.036;2023-06-24T01:08:36;9.68;;;7.20;;
72797;SDS011;61084;55.816;37.036;2023-06-24T01:11:02;11.10;;;6.70;;
72797;SDS011;61084;55.816;37.036;2023-06-24T01:13:28;10.77;;;7.10;;
72797;SDS011;61084;55.816;37.036;2023-06-24T01:15:54;10.40;;;7.22;;
72797;SDS011;61084;55.816;37.036;2023-06-24T01:29:51;4.35;;;2.17;;
72797;SDS011;61084;55.816;37.036;2023-06-24T01:37:24;1.98;;;1.65;;
72797;SDS011;61084;55.816;37.036;2023-06-24T01:42:52;2.65;;;1.20;;
72797;SDS011;61084;55.816;37.036;2023-06-24T01:45:24;1.27;;;1.17;;
72797;SDS011;61084;55.816;37.036;2023-06-24T01:47:54;1.40;;;1.30;;
72797;SDS011;61084;55.816;37.036;2023-06-24T01:50:32;1.20;;;1.10;;
72797;SDS011;61084;55.816;37.036;2023-06-24T01:53:01;1.30;;;1.20;;
72797;SDS011;61084;55.816;37.036;2023-06-24T01:55:33;1.52;;;1.17;;
72797;SDS011;61084;55.816;37.036;2023-06-24T01:58:02;1.35;;;1.25;;
72797;SDS011;61084;55.816;37.036;2023-06-24T02:00:32;1.08;;;0.98;;
72797;SDS011;61084;55.816;37.036;2023-06-24T02:02:59;4.05;;;1.05;;
72797;SDS011;61084;55.816;37.036;2023-06-24T02:05:27;1.50;;;1.30;;
72797;SDS011;61084;55.816;37.036;2023-06-24T02:07:54;1.67;;;1.15;;
72797;SDS011;61084;55.816;37.036;2023-06-24T02:10:22;4.32;;;1.00;;
72797;SDS011;61084;55.816;37.036;2023-06-24T02:12:50;0.80;;;0.80;;
72797;SDS011;61084;55.816;37.036;2023-06-24T02:15:17;1.10;;;1.00;;
72797;SDS011;61084;55.816;37.036;2023-06-24T02:17:44;1.33;;;0.98;;
72797;SDS011;61084;55.816;37.036;2023-06-24T02:20:32;1.50;;;0.60;;
72797;SDS011;61084;55.816;37.036;2023-06-24T02:22:59;0.70;;;0.70;;
72797;SDS011;61084;55.816;37.036;2023-06-24T02:25:26;0.80;;;0.80;;
72797;SDS011;61084;55.816;37.036;2023-06-24T02:27:53;0.45;;;0.45;;
72797;SDS011;61084;55.816;37.036;2023-06-24T02:30:21;2.25;;;0.90;;
72797;SDS011;61084;55.816;37.036;2023-06-24T02:32:47;1.48;;;0.70;;
72797;SDS011;61084;55.816;37.036;2023-06-24T02:35:15;1.67;;;0.73;;
72797;SDS011;61084;55.816;37.036;2023-06-24T02:37:41;3.72;;;0.85;;
72797;SDS011;61084;55.816;37.036;2023-06-24T02:40:07;2.55;;;0.65;;
72797;SDS011;61084;55.816;37.036;2023-06-24T02:42:35;1.00;;;0.80;;
72797;SDS011;61084;55.816;37.036;2023-06-24T02:45:02;0.65;;;0.65;;
72797;SDS011;61084;55.816;37.036;2023-06-24T02:47:32;2.45;;;0.70;;
72797;SDS011;61084;55.816;37.036;2023-06-24T02:49:59;1.92;;;0.70;;
72797;SDS011;61084;55.816;37.036;2023-06-24T02:52:29;1.85;;;0.50;;
72797;SDS011;61084;55.816;37.036;2023-06-24T02:54:58;0.60;;;0.60;;
72797;SDS011;61084;55.816;37.036;2023-06-24T02:58:00;0.57;;;0.57;;
72797;SDS011;61084;55.816;37.036;2023-06-24T03:00:52;0.93;;;0.80;;
72797;SDS011;61084;55.816;37.036;2023-06-24T03:03:44;1.83;;;0.77;;
72797;SDS011;61084;55.816;37.036;2023-06-24T03:06:15;1.98;;;0.60;;
72797;SDS011;61084;55.816;37.036;2023-06-24T03:08:44;1.55;;;0.50;;
72797;SDS011;61084;55.816;37.036;2023-06-24T03:11:14;0.65;;;0.40;;
72797;SDS011;61084;55.816;37.036;2023-06-24T03:13:40;1.05;;;0.50;;
72797;SDS011;61084;55.816;37.036;2023-06-24T03:16:16;2.63;;;0.43;;
72797;SDS011;61084;55.816;37.036;2023-06-24T03:18:52;0.55;;;0.55;;
72797;SDS011;61084;55.816;37.036;2023-06-24T03:21:19;0.57;;;0.57;;
72797;SDS011;61084;55.816;37.036;2023-06-24T03:23:45;1.58;;;0.50;;
72797;SDS011;61084;55.816;37.036;2023-06-24T03:26:13;0.40;;;0.40;;
72797;SDS011;61084;55.816;37.036;2023-06-24T03:28:40;0.40;;;0.40;;
72797;SDS011;61084;55.816;37.036;2023-06-24T03:31:11;1.40;;;0.80;;
72797;SDS011;61084;55.816;37.036;2023-06-24T03:33:37;0.40;;;0.40;;
72797;SDS011;61084;55.816;37.036;2023-06-24T03:36:05;1.90;;;0.80;;
72797;SDS011;61084;55.816;37.036;2023-06-24T03:38:33;2.45;;;0.50;;
72797;SDS011;61084;55.816;37.036;2023-06-24T03:40:59;0.60;;;0.60;;
72797;SDS011;61084;55.816;37.036;2023-06-24T03:43:25;0.50;;;0.50;;
72797;SDS011;61084;55.816;37.036;2023-06-24T03:45:51;0.47;;;0.47;;
72797;SDS011;61084;55.816;37.036;2023-06-24T03:48:17;0.38;;;0.30;;
72797;SDS011;61084;55.816;37.036;2023-06-24T03:50:43;0.82;;;0.55;;
72797;SDS011;61084;55.816;37.036;2023-06-24T03:53:09;0.82;;;0.60;;
72797;SDS011;61084;55.816;37.036;2023-06-24T03:55:36;1.90;;;0.60;;
72797;SDS011;61084;55.816;37.036;2023-06-24T03:58:04;1.08;;;0.45;;
72797;SDS011;61084;55.816;37.036;2023-06-24T04:00:30;0.43;;;0.43;;
72797;SDS011;61084;55.816;37.036;2023-06-24T04:02:56;1.20;;;0.90;;
72797;SDS011;61084;55.816;37.036;2023-06-24T04:05:26;0.50;;;0.50;;
72797;SDS011;61084;55.816;37.036;2023-06-24T04:07:53;0.75;;;0.50;;
72797;SDS011;61084;55.816;37.036;2023-06-24T04:10:19;0.52;;;0.52;;
72797;SDS011;61084;55.816;37.036;2023-06-24T04:12:45;1.63;;;0.40;;
72797;SDS011;61084;55.816;37.036;2023-06-24T04:15:11;0.60;;;0.50;;
72797;SDS011;61084;55.816;37.036;2023-06-24T04:17:37;0.45;;;0.45;;
72797;SDS011;61084;55.816;37.036;2023-06-24T04:20:03;1.27;;;0.50;;
72797;SDS011;61084;55.816;37.036;2023-06-24T04:22:33;3.40;;;0.60;;
72797;SDS011;61084;55.816;37.036;2023-06-24T04:24:59;3.20;;;0.65;;
72797;SDS011;61084;55.816;37.036;2023-06-24T04:27:25;0.52;;;0.52;;
72797;SDS011;61084;55.816;37.036;2023-06-24T04:29:51;0.43;;;0.43;;
72797;SDS011;61084;55.816;37.036;2023-06-24T04:32:16;1.58;;;0.60;;
72797;SDS011;61084;55.816;37.036;2023-06-24T04:34:42;1.20;;;0.65;;
72797;SDS011;61084;55.816;37.036;2023-06-24T04:37:09;0.63;;;0.55;;
72797;SDS011;61084;55.816;37.036;2023-06-24T04:39:35;0.50;;;0.50;;
72797;SDS011;61084;55.816;37.036;2023-06-24T04:42:00;3.88;;;0.60;;
72797;SDS011;61084;55.816;37.036;2023-06-24T04:44:26;0.68;;;0.60;;
72797;SDS011;61084;55.816;37.036;2023-06-24T04:46:52;0.95;;;0.70;;
72797;SDS011;61084;55.816;37.036;2023-06-24T04:49:18;0.93;;;0.63;;
72797;SDS011;61084;55.816;37.036;2023-06-24T04:51:44;1.48;;;0.75;;
72797;SDS011;61084;55.816;37.036;2023-06-24T04:54:11;0.60;;;0.60;;
72797;SDS011;61084;55.816;37.036;2023-06-24T04:56:39;1.15;;;0.55;;
72797;SDS011;61084;55.816;37.036;2023-06-24T04:59:06;0.60;;;0.60;;
72797;SDS011;61084;55.816;37.036;2023-06-24T05:01:32;2.75;;;0.65;;
72797;SDS011;61084;55.816;37.036;2023-06-24T05:03:58;1.23;;;0.77;;
72797;SDS011;61084;55.816;37.036;2023-06-24T05:06:24;0.40;;;0.30;;
72797;SDS011;61084;55.816;37.036;2023-06-24T05:08:51;0.65;;;0.40;;
72797;SDS011;61084;55.816;37.036;2023-06-24T05:11:17;1.55;;;0.70;;
72797;SDS011;61084;55.816;37.036;2023-06-24T05:13:43;1.42;;;0.68;;
72797;SDS011;61084;55.816;37.036;2023-06-24T05:16:09;0.52;;;0.52;;
72797;SDS011;61084;55.816;37.036;2023-06-24T05:18:35;0.57;;;0.57;;
72797;SDS011;61084;55.816;37.036;2023-06-24T05:21:01;0.40;;;0.40;;
72797;SDS011;61084;55.816;37.036;2023-06-24T05:23:27;0.85;;;0.60;;
72797;SDS011;61084;55.816;37.036;2023-06-24T05:25:53;0.50;;;0.40;;
72797;SDS011;61084;55.816;37.036;2023-06-24T05:28:19;0.90;;;0.80;;
72797;SDS011;61084;55.816;37.036;2023-06-24T05:30:45;0.50;;;0.50;;
72797;SDS011;61084;55.816;37.036;2023-06-24T05:33:11;3.53;;;0.68;;
72797;SDS011;61084;55.816;37.036;2023-06-24T05:35:37;1.67;;;0.43;;
72797;SDS011;61084;55.816;37.036;2023-06-24T05:38:06;0.73;;;0.73;;
72797;SDS011;61084;55.816;37.036;2023-06-24T05:40:32;1.95;;;0.50;;
72797;SDS011;61084;55.816;37.036;2023-06-24T05:42:58;0.50;;;0.50;;
72797;SDS011;61084;55.816;37.036;2023-06-24T05:45:24;0.90;;;0.60;;
72797;SDS011;61084;55.816;37.036;2023-06-24T05:47:50;0.60;;;0.60;;
72797;SDS011;61084;55.816;37.036;2023-06-24T05:50:16;2.67;;;0.60;;
72797;SDS011;61084;55.816;37.036;2023-06-24T05:52:42;0.90;;;0.47;;
72797;SDS011;61084;55.816;37.036;2023-06-24T05:55:08;2.70;;;0.85;;
72797;SDS011;61084;55.816;37.036;2023-06-24T05:57:34;0.45;;;0.45;;
72797;SDS011;61084;55.816;37.036;2023-06-24T06:00:00;1.00;;;0.90;;
72797;SDS011;61084;55.816;37.036;2023-06-24T06:02:26;0.88;;;0.60;;
72797;SDS011;61084;55.816;37.036;2023-06-24T06:04:52;0.77;;;0.57;;
72797;SDS011;61084;55.816;37.036;2023-06-24T06:07:17;1.33;;;0.80;;
72797;SDS011;61084;55.816;37.036;2023-06-24T06:09:43;0.98;;;0.68;;
72797;SDS011;61084;55.816;37.036;2023-06-24T06:12:09;1.42;;;0.90;;
72797;SDS011;61084;55.816;37.036;2023-06-24T06:14:35;1.17;;;0.88;;
72797;SDS011;61084;55.816;37.036;2023-06-24T06:17:01;0.60;;;0.60;;
72797;SDS011;61084;55.816;37.036;2023-06-24T06:19:27;1.33;;;1.00;;
72797;SDS011;61084;55.816;37.036;2023-06-24T06:21:53;0.88;;;0.70;;
72797;SDS011;61084;55.816;37.036;2023-06-24T06:24:19;3.35;;;0.70;;
72797;SDS011;61084;55.816;37.036;2023-06-24T06:26:45;0.68;;;0.68;;
72797;SDS011;61084;55.816;37.036;2023-06-24T06:29:11;4.35;;;0.80;;
72797;SDS011;61084;55.816;37.036;2023-06-24T06:31:37;1.45;;;0.60;;
72797;SDS011;61084;55.816;37.036;2023-06-24T06:34:03;0.68;;;0.65;;
72797;SDS011;61084;55.816;37.036;2023-06-24T06:36:29;0.52;;;0.50;;
72797;SDS011;61084;55.816;37.036;2023-06-24T06:38:55;2.67;;;0.80;;
72797;SDS011;61084;55.816;37.036;2023-06-24T06:41:21;0.70;;;0.70;;
72797;SDS011;61084;55.816;37.036;2023-06-24T06:43:51;1.77;;;1.50;;
72797;SDS011;61084;55.816;37.036;2023-06-24T06:46:17;1.58;;;0.57;;
72797;SDS011;61084;55.816;37.036;2023-06-24T06:48:43;0.70;;;0.70;;
72797;SDS011;61084;55.816;37.036;2023-06-24T06:51:09;2.22;;;0.90;;
72797;SDS011;61084;55.816;37.036;2023-06-24T06:53:35;0.68;;;0.60;;
72797;SDS011;61084;55.816;37.036;2023-06-24T06:56:01;0.93;;;0.60;;
72797;SDS011;61084;55.816;37.036;2023-06-24T06:58:27;2.65;;;0.65;;
72797;SDS011;61084;55.816;37.036;2023-06-24T07:00:52;0.65;;;0.65;;
72797;SDS011;61084;55.816;37.036;2023-06-24T07:03:18;1.45;;;1.35;;
72797;SDS011;61084;55.816;37.036;2023-06-24T07:05:44;2.00;;;1.70;;
72797;SDS011;61084;55.816;37.036;2023-06-24T07:08:10;1.90;;;1.10;;
72797;SDS011;61084;55.816;37.036;2023-06-24T07:10:36;1.52;;;1.33;;
72797;SDS011;61084;55.816;37.036;2023-06-24T07:13:01;1.17;;;1.08;;
72797;SDS011;61084;55.816;37.036;2023-06-24T07:15:27;1.70;;;1.60;;
72797;SDS011;61084;55.816;37.036;2023-06-24T07:17:53;1.55;;;1.45;;
72797;SDS011;61084;55.816;37.036;2023-06-24T07:20:20;1.52;;;1.42;;
72797;SDS011;61084;55.816;37.036;2023-06-24T07:22:47;3.97;;;1.90;;
72797;SDS011;61084;55.816;37.036;2023-06-24T07:25:13;1.92;;;1.80;;
72797;SDS011;61084;55.816;37.036;2023-06-24T07:27:40;2.60;;;1.65;;
72797;SDS011;61084;55.816;37.036;2023-06-24T07:30:05;1.95;;;1.65;;
72797;SDS011;61084;55.816;37.036;2023-06-24T07:32:32;2.10;;;1.70;;
72797;SDS011;61084;55.816;37.036;2023-06-24T07:34:58;2.65;;;1.92;;
72797;SDS011;61084;55.816;37.036;2023-06-24T07:37:24;4.35;;;1.88;;
72797;SDS011;61084;55.816;37.036;2023-06-24T07:39:50;3.92;;;2.20;;
72797;SDS011;61084;55.816;37.036;2023-06-24T07:42:16;2.30;;;2.10;;
72797;SDS011;61084;55.816;37.036;2023-06-24T07:44:45;2.45;;;2.25;;
72797;SDS011;61084;55.816;37.036;2023-06-24T07:47:11;2.20;;;1.98;;
72797;SDS011;61084;55.816;37.036;2023-06-24T07:49:37;2.20;;;2.00;;
72797;SDS011;61084;55.816;37.036;2023-06-24T07:52:03;4.47;;;2.20;;
72797;SDS011;61084;55.816;37.036;2023-06-24T07:54:30;2.58;;;2.28;;
72797;SDS011;61084;55.816;37.036;2023-06-24T07:56:56;3.85;;;2.33;;
72797;SDS011;61084;55.816;37.036;2023-06-24T07:59:22;4.55;;;2.30;;
72797;SDS011;61084;55.816;37.036;2023-06-24T08:01:48;3.53;;;2.63;;
72797;SDS011;61084;55.816;37.036;2023-06-24T08:04:14;2.28;;;1.90;;
72797;SDS011;61084;55.816;37.036;2023-06-24T08:06:40;5.55;;;2.38;;
72797;SDS011;61084;55.816;37.036;2023-06-24T08:09:06;3.78;;;2.00;;
72797;SDS011;61084;55.816;37.036;2023-06-24T08:11:32;2.63;;;2.40;;
72797;SDS011;61084;55.816;37.036;2023-06-24T08:16:24;2.47;;;2.20;;
72797;SDS011;61084;55.816;37.036;2023-06-24T08:18:50;4.28;;;2.50;;
72797;SDS011;61084;55.816;37.036;2023-06-24T08:21:16;2.78;;;2.38;;
72797;SDS011;61084;55.816;37.036;2023-06-24T08:23:42;3.17;;;2.03;;
72797;SDS011;61084;55.816;37.036;2023-06-24T08:26:08;2.60;;;1.92;;
72797;SDS011;61084;55.816;37.036;2023-06-24T08:28:34;3.30;;;2.35;;
72797;SDS011;61084;55.816;37.036;2023-06-24T08:33:26;2.58;;;2.20;;
72797;SDS011;61084;55.816;37.036;2023-06-24T08:35:52;6.53;;;2.67;;
72797;SDS011;61084;55.816;37.036;2023-06-24T08:38:18;3.00;;;2.55;;
72797;SDS011;61084;55.816;37.036;2023-06-24T08:40:44;3.70;;;2.50;;
72797;SDS011;61084;55.816;37.036;2023-06-24T08:43:14;2.72;;;2.40;;
72797;SDS011;61084;55.816;37.036;2023-06-24T08:45:40;3.67;;;2.60;;
72797;SDS011;61084;55.816;37.036;2023-06-24T08:48:06;2.50;;;2.22;;
72797;SDS011;61084;55.816;37.036;2023-06-24T08:53:02;3.15;;;2.80;;
72797;SDS011;61084;55.816;37.036;2023-06-24T08:55:32;3.97;;;2.45;;
72797;SDS011;61084;55.816;37.036;2023-06-24T08:58:05;2.75;;;2.25;;
72797;SDS011;61084;55.816;37.036;2023-06-24T09:00:30;3.58;;;2.67;;
72797;SDS011;61084;55.816;37.036;2023-06-24T09:03:03;3.05;;;2.70;;
72797;SDS011;61084;55.816;37.036;2023-06-24T09:05:30;3.08;;;2.72;;
72797;SDS011;61084;55.816;37.036;2023-06-24T09:07:56;3.42;;;2.83;;
72797;SDS011;61084;55.816;37.036;2023-06-24T09:10:31;5.03;;;2.90;;
72797;SDS011;61084;55.816;37.036;2023-06-24T09:13:02;3.80;;;2.95;;
72797;SDS011;61084;55.816;37.036;2023-06-24T09:15:39;3.83;;;3.15;;
72797;SDS011;61084;55.816;37.036;2023-06-24T09:18:04;4.20;;;3.20;;
72797;SDS011;61084;55.816;37.036;2023-06-24T09:20:31;3.47;;;2.95;;
72797;SDS011;61084;55.816;37.036;2023-06-24T09:23:01;5.70;;;3.28;;
72797;SDS011;61084;55.816;37.036;2023-06-24T09:25:28;6.40;;;4.07;;
72797;SDS011;61084;55.816;37.036;2023-06-24T09:27:58;5.15;;;3.65;;
72797;SDS011;61084;55.816;37.036;2023-06-24T09:30:27;5.97;;;3.90;;
72797;SDS011;61084;55.816;37.036;2023-06-24T09:32:54;5.55;;;3.83;;
72797;SDS011;61084;55.816;37.036;2023-06-24T09:35:22;4.65;;;3.92;;
72797;SDS011;61084;55.816;37.036;2023-06-24T09:37:53;4.80;;;4.07;;
72797;SDS011;61084;55.816;37.036;2023-06-24T09:40:20;5.25;;;4.43;;
72797;SDS011;61084;55.816;37.036;2023-06-24T09:42:53;5.22;;;4.53;;
72797;SDS011;61084;55.816;37.036;2023-06-24T09:45:23;6.28;;;4.68;;
72797;SDS011;61084;55.816;37.036;2023-06-24T09:47:51;6.32;;;4.55;;
72797;SDS011;61084;55.816;37.036;2023-06-24T09:50:17;5.97;;;4.63;;
72797;SDS011;61084;55.816;37.036;2023-06-24T09:52:44;6.75;;;5.07;;
72797;SDS011;61084;55.816;37.036;2023-06-24T09:55:15;6.10;;;4.43;;
72797;SDS011;61084;55.816;37.036;2023-06-24T09:57:46;6.18;;;4.82;;
72797;SDS011;61084;55.816;37.036;2023-06-24T10:00:17;7.45;;;4.75;;
72797;SDS011;61084;55.816;37.036;2023-06-24T10:02:45;6.72;;;4.82;;
72797;SDS011;61084;55.816;37.036;2023-06-24T10:05:12;7.47;;;5.32;;
72797;SDS011;61084;55.816;37.036;2023-06-24T10:07:40;7.78;;;5.53;;
72797;SDS011;61084;55.816;37.036;2023-06-24T10:10:07;6.82;;;5.75;;
72797;SDS011;61084;55.816;37.036;2023-06-24T10:12:35;9.73;;;6.13;;
72797;SDS011;61084;55.816;37.036;2023-06-24T10:17:29;7.75;;;5.93;;
72797;SDS011;61084;55.816;37.036;2023-06-24T10:19:55;10.55;;;6.50;;
72797;SDS011;61084;55.816;37.036;2023-06-24T10:22:22;8.07;;;6.50;;
72797;SDS011;61084;55.816;37.036;2023-06-24T10:24:51;8.18;;;6.63;;
72797;SDS011;61084;55.816;37.036;2023-06-24T10:29:47;11.57;;;6.88;;
72797;SDS011;61084;55.816;37.036;2023-06-24T10:32:15;9.85;;;7.30;;
72797;SDS011;61084;55.816;37.036;2023-06-24T10:34:46;7.97;;;6.35;;
72797;SDS011;61084;55.816;37.036;2023-06-24T10:39:50;6.95;;;6.22;;
72797;SDS011;61084;55.816;37.036;2023-06-24T10:44:50;8.13;;;7.03;;
72797;SDS011;61084;55.816;37.036;2023-06-24T10:47:17;8.27;;;6.82;;
72797;SDS011;61084;55.816;37.036;2023-06-24T10:49:43;8.60;;;6.90;;
72797;SDS011;61084;55.816;37.036;2023-06-24T10:52:09;7.93;;;5.82;;
72797;SDS011;61084;55.816;37.036;2023-06-24T10:54:39;6.65;;;5.45;;
72797;SDS011;61084;55.816;37.036;2023-06-24T10:57:06;7.82;;;5.65;;
72797;SDS011;61084;55.816;37.036;2023-06-24T10:59:34;7.65;;;5.55;;
72797;SDS011;61084;55.816;37.036;2023-06-24T11:02:00;6.47;;;5.47;;
72797;SDS011;61084;55.816;37.036;2023-06-24T11:04:26;7.40;;;5.57;;
72797;SDS011;61084;55.816;37.036;2023-06-24T11:07:01;6.35;;;5.40;;
72797;SDS011;61084;55.816;37.036;2023-06-24T11:09:28;7.10;;;5.15;;
72797;SDS011;61084;55.816;37.036;2023-06-24T11:11:54;7.82;;;5.00;;
72797;SDS011;61084;55.816;37.036;2023-06-24T11:14:19;8.38;;;5.78;;
72797;SDS011;61084;55.816;37.036;2023-06-24T11:16:45;7.13;;;5.07;;
72797;SDS011;61084;55.816;37.036;2023-06-24T11:19:12;7.63;;;4.93;;
72797;SDS011;61084;55.816;37.036;2023-06-24T11:24:04;9.52;;;5.53;;
72797;SDS011;61084;55.816;37.036;2023-06-24T11:26:30;6.00;;;4.97;;
72797;SDS011;61084;55.816;37.036;2023-06-24T11:28:57;6.13;;;4.70;;
72797;SDS011;61084;55.816;37.036;2023-06-24T11:31:26;5.10;;;4.60;;
72797;SDS011;61084;55.816;37.036;2023-06-24T11:33:52;4.57;;;4.18;;
72797;SDS011;61084;55.816;37.036;2023-06-24T11:36:18;6.53;;;4.95;;
72797;SDS011;61084;55.816;37.036;2023-06-24T11:38:48;4.20;;;3.70;;
72797;SDS011;61084;55.816;37.036;2023-06-24T11:41:14;5.00;;;4.22;;
72797;SDS011;61084;55.816;37.036;2023-06-24T11:43:45;4.50;;;4.07;;
72797;SDS011;61084;55.816;37.036;2023-06-24T11:46:21;4.43;;;3.92;;
72797;SDS011;61084;55.816;37.036;2023-06-24T11:48:49;7.85;;;4.00;;
72797;SDS011;61084;55.816;37.036;2023-06-24T11:51:15;4.70;;;4.10;;
72797;SDS011;61084;55.816;37.036;2023-06-24T11:53:41;4.65;;;3.50;;
72797;SDS011;61084;55.816;37.036;2023-06-24T11:56:09;3.92;;;3.53;;
72797;SDS011;61084;55.816;37.036;2023-06-24T12:01:01;4.15;;;3.25;;
72797;SDS011;61084;55.816;37.036;2023-06-24T12:03:28;3.75;;;3.10;;
72797;SDS011;61084;55.816;37.036;2023-06-24T12:05:55;4.40;;;3.45;;
72797;SDS011;61084;55.816;37.036;2023-06-24T12:08:21;5.47;;;3.70;;
72797;SDS011;61084;55.816;37.036;2023-06-24T12:10:48;3.30;;;2.58;;
72797;SDS011;61084;55.816;37.036;2023-06-24T12:13:14;4.88;;;3.42;;
72797;SDS011;61084;55.816;37.036;2023-06-24T12:18:07;4.38;;;3.00;;
72797;SDS011;61084;55.816;37.036;2023-06-24T12:20:33;5.80;;;3.10;;
72797;SDS011;61084;55.816;37.036;2023-06-24T12:23:01;3.55;;;2.47;;
72797;SDS011;61084;55.816;37.036;2023-06-24T12:25:31;3.60;;;2.50;;
72797;SDS011;61084;55.816;37.036;2023-06-24T12:30:24;3.03;;;2.72;;
72797;SDS011;61084;55.816;37.036;2023-06-24T12:32:50;4.95;;;3.60;;
72797;SDS011;61084;55.816;37.036;2023-06-24T12:35:17;3.92;;;2.80;;
72797;SDS011;61084;55.816;37.036;2023-06-24T12:37:43;3.33;;;2.60;;
72797;SDS011;61084;55.816;37.036;2023-06-24T12:40:10;2.97;;;1.95;;
72797;SDS011;61084;55.816;37.036;2023-06-24T12:42:36;4.30;;;2.05;;
72797;SDS011;61084;55.816;37.036;2023-06-24T12:45:02;3.28;;;1.95;;
72797;SDS011;61084;55.816;37.036;2023-06-24T12:47:32;2.75;;;1.92;;
72797;SDS011;61084;55.816;37.036;2023-06-24T12:49:58;3.33;;;2.03;;
72797;SDS011;61084;55.816;37.036;2023-06-24T12:52:23;3.15;;;2.05;;
72797;SDS011;61084;55.816;37.036;2023-06-24T12:55:08;2.83;;;1.92;;
72797;SDS011;61084;55.816;37.036;2023-06-24T12:57:37;2.03;;;1.77;;
72797;SDS011;61084;55.816;37.036;2023-06-24T13:00:06;3.15;;;2.22;;
72797;SDS011;61084;55.816;37.036;2023-06-24T13:02:33;2.72;;;2.35;;
72797;SDS011;61084;55.816;37.036;2023-06-24T13:05:00;2.20;;;1.95;;
72797;SDS011;61084;55.816;37.036;2023-06-24T13:07:25;3.30;;;1.98;;
72797;SDS011;61084;55.816;37.036;2023-06-24T13:09:51;5.88;;;2.60;;
72797;SDS011;61084;55.816;37.036;2023-06-24T13:14:43;2.72;;;2.30;;
72797;SDS011;61084;55.816;37.036;2023-06-24T13:17:09;2.58;;;2.08;;
72797;SDS011;61084;55.816;37.036;2023-06-24T13:19:35;3.20;;;2.08;;
72797;SDS011;61084;55.816;37.036;2023-06-24T13:22:01;3.08;;;2.65;;
72797;SDS011;61084;55.816;37.036;2023-06-24T13:24:27;3.28;;;2.40;;
72797;SDS011;61084;55.816;37.036;2023-06-24T13:26:53;3.60;;;2.60;;
72797;SDS011;61084;55.816;37.036;2023-06-24T13:29:18;2.95;;;2.30;;
72797;SDS011;61084;55.816;37.036;2023-06-24T13:31:47;3.38;;;2.25;;
72797;SDS011;61084;55.816;37.036;2023-06-24T13:34:13;4.57;;;3.10;;
72797;SDS011;61084;55.816;37.036;2023-06-24T13:36:42;5.35;;;2.75;;
72797;SDS011;61084;55.816;37.036;2023-06-24T13:39:08;4.88;;;2.40;;
72797;SDS011;61084;55.816;37.036;2023-06-24T13:41:37;5.13;;;2.55;;
72797;SDS011;61084;55.816;37.036;2023-06-24T13:44:03;2.67;;;2.10;;
72797;SDS011;61084;55.816;37.036;2023-06-24T13:46:30;4.05;;;2.13;;
72797;SDS011;61084;55.816;37.036;2023-06-24T13:48:57;5.93;;;3.65;;
72797;SDS011;61084;55.816;37.036;2023-06-24T13:51:24;3.38;;;2.17;;
72797;SDS011;61084;55.816;37.036;2023-06-24T13:53:50;2.45;;;1.70;;
72797;SDS011;61084;55.816;37.036;2023-06-24T13:56:18;3.80;;;2.35;;
72797;SDS011;61084;55.816;37.036;2023-06-24T13:58:45;2.00;;;1.80;;
72797;SDS011;61084;55.816;37.036;2023-06-24T14:01:11;2.70;;;1.70;;
72797;SDS011;61084;55.816;37.036;2023-06-24T14:03:37;2.83;;;1.92;;
72797;SDS011;61084;55.816;37.036;2023-06-24T14:06:22;2.35;;;1.42;;
72797;SDS011;61084;55.816;37.036;2023-06-24T14:08:49;3.65;;;1.80;;
72797;SDS011;61084;55.816;37.036;2023-06-24T14:11:16;2.30;;;1.67;;
72797;SDS011;61084;55.816;37.036;2023-06-24T14:13:43;3.33;;;2.45;;
72797;SDS011;61084;55.816;37.036;2023-06-24T14:16:28;3.03;;;1.98;;
72797;SDS011;61084;55.816;37.036;2023-06-24T14:18:54;5.75;;;2.20;;
72797;SDS011;61084;55.816;37.036;2023-06-24T14:21:19;4.85;;;2.10;;
72797;SDS011;61084;55.816;37.036;2023-06-24T14:23:45;2.20;;;2.00;;
72797;SDS011;61084;55.816;37.036;2023-06-24T14:26:11;2.38;;;1.52;;
72797;SDS011;61084;55.816;37.036;2023-06-24T14:31:02;2.30;;;1.75;;
72797;SDS011;61084;55.816;37.036;2023-06-24T14:33:28;2.25;;;1.60;;
72797;SDS011;61084;55.816;37.036;2023-06-24T14:41:04;2.25;;;1.90;;
72797;SDS011;61084;55.816;37.036;2023-06-24T14:43:33;3.58;;;1.80;;
72797;SDS011;61084;55.816;37.036;2023-06-24T14:48:24;2.17;;;1.80;;
72797;SDS011;61084;55.816;37.036;2023-06-24T14:50:50;2.97;;;1.80;;
72797;SDS011;61084;55.816;37.036;2023-06-24T14:55:42;2.17;;;1.67;;
72797;SDS011;61084;55.816;37.036;2023-06-24T15:00:33;3.88;;;1.70;;
72797;SDS011;61084;55.816;37.036;2023-06-24T15:02:59;2.30;;;1.88;;
72797;SDS011;61084;55.816;37.036;2023-06-24T15:07:50;2.47;;;2.17;;
72797;SDS011;61084;55.816;37.036;2023-06-24T15:12:42;4.22;;;1.90;;
72797;SDS011;61084;55.816;37.036;2023-06-24T15:17:33;2.95;;;2.20;;
72797;SDS011;61084;55.816;37.036;2023-06-24T15:20:01;5.22;;;2.17;;
72797;SDS011;61084;55.816;37.036;2023-06-24T15:22:30;2.53;;;2.33;;
72797;SDS011;61084;55.816;37.036;2023-06-24T15:24:56;3.78;;;2.03;;
72797;SDS011;61084;55.816;37.036;2023-06-24T15:29:47;3.17;;;2.08;;
72797;SDS011;61084;55.816;37.036;2023-06-24T15:34:39;3.55;;;2.03;;
72797;SDS011;61084;55.816;37.036;2023-06-24T15:37:23;2.42;;;2.22;;
72797;SDS011;61084;55.816;37.036;2023-06-24T15:39:49;2.88;;;2.63;;
72797;SDS011;61084;55.816;37.036;2023-06-24T15:44:40;2.63;;;1.95;;
72797;SDS011;61084;55.816;37.036;2023-06-24T15:47:06;3.22;;;1.90;;
72797;SDS011;61084;55.816;37.036;2023-06-24T15:51:58;2.20;;;2.00;;
72797;SDS011;61084;55.816;37.036;2023-06-24T15:54:23;2.47;;;2.03;;
72797;SDS011;61084;55.816;37.036;2023-06-24T15:59:15;2.63;;;1.90;;
72797;SDS011;61084;55.816;37.036;2023-06-24T16:04:07;3.30;;;2.30;;
72797;SDS011;61084;55.816;37.036;2023-06-24T16:06:34;4.20;;;2.05;;
72797;SDS011;61084;55.816;37.036;2023-06-24T16:09:01;3.92;;;2.10;;